createdAt,value
2023-01-22T14:07:09.426Z,102496.39
2023-01-22T14:09:40.825Z,102496.81
2023-01-22T14:12:25.423Z,102501.06
2023-01-22T14:14:54.621Z,102502.61
2023-01-22T14:17:34.475Z,102505.88
2023-01-22T14:20:04.544Z,102510.32
2023-01-22T14:22:33.408Z,102512.20
2023-01-22T14:25:02.318Z,102511.70
2023-01-22T14:27:43.807Z,102514.01
2023-01-22T14:30:14.986Z,102515.56
2023-01-22T14:32:44.357Z,102516.96
2023-01-22T14:35:18.522Z,102515.47
2023-01-22T14:37:47.689Z,102516.55
2023-01-22T14:40:18.150Z,102520.13
2023-01-22T14:42:47.249Z,102521.73
2023-01-22T14:45:18.297Z,102520.17
2023-01-22T14:47:52.138Z,102522.16
2023-01-22T14:50:21.817Z,102523.71
2023-01-22T14:52:51.841Z,102530.02
2023-01-22T14:55:20.583Z,102532.30
2023-01-22T14:57:48.962Z,102536.51
2023-01-22T15:00:19.889Z,102542.42
2023-01-22T15:02:49.564Z,102542.56
2023-01-22T15:05:17.797Z,102541.35
2023-01-22T15:07:45.933Z,102541.61
2023-01-22T15:10:14.513Z,102539.95
2023-01-22T15:12:51.375Z,102548.50
2023-01-22T15:15:28.299Z,102544.56
2023-01-22T15:17:58.045Z,102547.94
2023-01-22T15:20:26.748Z,102550.41
2023-01-22T15:22:55.120Z,102553.67
2023-01-22T15:25:23.529Z,102556.37
2023-01-22T15:27:52.353Z,102554.23
2023-01-22T15:30:21.287Z,102561.50
2023-01-22T15:32:50.011Z,102562.38
2023-01-22T15:35:18.155Z,102562.30
2023-01-22T15:37:48.177Z,102565.96
2023-01-22T15:40:16.585Z,102572.14
2023-01-22T15:42:45.000Z,102573.15
2023-01-22T15:45:13.524Z,102570.81
2023-01-22T15:47:45.676Z,102576.88
2023-01-22T15:50:20.548Z,102575.25
2023-01-22T15:52:54.019Z,102576.00
2023-01-22T15:55:23.097Z,102570.52
2023-01-22T15:57:51.690Z,102578.90
2023-01-22T16:00:21.767Z,102581.06
2023-01-22T16:02:50.394Z,102583.81
2023-01-22T16:05:20.591Z,102584.98
2023-01-22T16:07:52.326Z,102586.77
2023-01-22T16:10:21.616Z,102591.67
2023-01-22T16:12:50.182Z,102594.29
2023-01-22T16:15:18.956Z,102593.04
2023-01-22T16:17:50.081Z,102600.42
2023-01-22T16:20:18.739Z,102602.84
2023-01-22T16:22:47.511Z,102607.38
2023-01-22T16:25:16.170Z,102604.75
2023-01-22T16:27:45.655Z,102606.73
2023-01-22T16:30:14.382Z,102612.73
2023-01-22T16:32:46.413Z,102614.86
2023-01-22T16:35:15.027Z,102615.05
2023-01-22T16:37:48.875Z,102612.90
2023-01-22T16:40:18.829Z,102618.23
2023-01-22T16:43:05.929Z,102621.62
2023-01-22T16:45:35.452Z,102621.19
2023-01-22T16:49:05.865Z,102625.93
2023-01-22T16:51:39.995Z,102630.88
2023-01-22T16:54:09.166Z,102632.58
2023-01-22T16:56:38.525Z,102631.52
2023-01-22T16:59:07.309Z,102631.40
2023-01-22T17:01:36.367Z,102629.29
2023-01-22T17:04:05.184Z,102633.44
2023-01-22T17:06:40.359Z,102636.39
2023-01-22T17:09:17.801Z,102638.02
2023-01-22T17:11:50.643Z,102638.73
2023-01-22T17:14:20.884Z,102639.78
2023-01-22T17:16:49.966Z,102643.56
2023-01-22T17:19:19.981Z,102645.77
2023-01-22T17:21:59.113Z,102649.45
2023-01-22T17:24:29.586Z,102650.06
2023-01-22T17:27:02.581Z,102649.37
2023-01-22T17:29:32.618Z,102653.13
2023-01-22T17:32:03.131Z,102658.35
2023-01-22T17:34:32.024Z,102657.23
2023-01-22T17:37:00.628Z,102662.54
2023-01-22T17:39:29.215Z,102666.84
2023-01-22T17:41:57.346Z,102673.48
2023-01-22T17:44:30.269Z,102677.96
2023-01-22T17:47:00.480Z,102681.36
2023-01-22T17:49:33.896Z,102683.55
2023-01-22T17:54:55.851Z,102691.65
2023-01-22T17:57:24.564Z,102691.55
2023-01-22T17:59:53.082Z,102698.29
2023-01-22T18:02:21.576Z,102702.98
2023-01-22T18:04:49.984Z,102701.85
2023-01-22T18:07:18.756Z,102701.79
2023-01-22T18:09:47.168Z,102702.60
2023-01-22T18:12:15.485Z,102699.67
2023-01-22T18:14:45.302Z,102703.23
2023-01-22T18:17:14.216Z,102705.59
2023-01-22T18:19:42.588Z,102706.94
2023-01-22T18:22:11.074Z,102711.31
2023-01-22T18:24:39.481Z,102712.44
2023-01-22T18:27:07.980Z,102714.94
2023-01-22T18:29:39.042Z,102715.67
2023-01-22T18:32:07.668Z,102718.02
2023-01-22T18:34:36.423Z,102721.52
2023-01-22T18:37:07.308Z,102721.00
2023-01-22T18:39:35.666Z,102721.30
2023-01-22T18:42:04.054Z,102726.11
2023-01-22T18:44:32.567Z,102727.85
2023-01-22T18:47:02.034Z,102732.16
2023-01-22T18:49:30.624Z,102728.54
2023-01-22T18:52:01.220Z,102729.03
2023-01-22T18:54:30.046Z,102728.71
2023-01-22T18:56:59.882Z,102732.31
2023-01-22T18:59:28.654Z,102732.70
2023-01-22T19:01:57.990Z,102735.60
2023-01-22T19:04:29.004Z,102733.66
2023-01-22T19:06:58.811Z,102734.66
2023-01-22T19:09:28.765Z,102734.52
2023-01-22T19:11:57.144Z,102739.78
2023-01-22T19:14:27.319Z,102741.61
2023-01-22T19:16:58.356Z,102745.02
2023-01-22T19:19:29.986Z,102743.88
2023-01-22T19:21:59.446Z,102744.40
2023-01-22T19:24:34.377Z,102746.53
2023-01-22T19:27:08.720Z,102746.84
2023-01-22T19:29:37.544Z,102748.67
2023-01-22T19:32:06.519Z,102749.59
2023-01-22T19:34:34.896Z,102750.75
2023-01-22T19:37:03.035Z,102754.27
2023-01-22T19:39:31.914Z,102752.48
2023-01-22T19:42:05.485Z,102752.60
2023-01-22T19:44:35.292Z,102748.71
2023-01-22T19:47:07.271Z,102749.96
2023-01-22T19:49:38.535Z,102746.20
2023-01-22T19:52:07.467Z,102744.95
2023-01-22T19:54:40.949Z,102745.77
2023-01-22T19:57:12.583Z,102748.83
2023-01-22T19:59:43.065Z,102753.11
2023-01-22T20:02:15.909Z,102754.91
2023-01-22T20:04:44.793Z,102755.86
2023-01-22T20:07:13.544Z,102753.11
2023-01-22T20:09:45.414Z,102758.56
2023-01-22T20:12:14.316Z,102759.56
2023-01-22T20:14:45.497Z,102765.01
2023-01-22T20:17:14.223Z,102769.10
2023-01-22T20:19:42.811Z,102765.95
2023-01-22T20:22:11.890Z,102764.95
2023-01-22T20:24:41.940Z,102766.11
2023-01-22T20:27:14.396Z,102770.44
2023-01-22T20:29:43.716Z,102773.86
2023-01-22T20:32:15.657Z,102772.91
2023-01-22T20:34:48.965Z,102772.31
2023-01-22T20:37:17.697Z,102778.16
2023-01-22T20:39:46.648Z,102779.94
2023-01-22T20:42:15.493Z,102789.31
2023-01-22T20:44:47.449Z,102796.57
2023-01-22T20:47:16.339Z,102788.97
2023-01-22T20:49:44.964Z,102791.21
2023-01-22T20:52:14.141Z,102792.10
2023-01-22T20:54:54.984Z,102796.40
2023-01-22T20:57:30.461Z,102796.77
2023-01-22T21:00:05.347Z,102798.80
2023-01-22T21:02:44.187Z,102798.80
2023-01-22T21:05:13.809Z,102796.39
2023-01-22T21:07:42.578Z,102800.34
2023-01-22T21:10:11.741Z,102803.45
2023-01-22T21:12:43.075Z,102809.23
2023-01-22T21:15:11.682Z,102808.08
2023-01-22T21:17:39.880Z,102809.23
2023-01-22T21:20:11.267Z,102808.73
2023-01-22T21:22:42.476Z,102808.14
2023-01-22T21:25:11.054Z,102809.21
2023-01-22T21:27:39.645Z,102810.33
2023-01-22T21:30:10.780Z,102808.34
2023-01-22T21:32:39.369Z,102810.58
2023-01-22T21:35:09.083Z,102807.69
2023-01-22T21:37:37.271Z,102803.41
2023-01-22T21:40:08.840Z,102800.67
2023-01-22T21:42:56.166Z,102796.94
2023-01-22T21:45:43.143Z,102798.64
2023-01-22T21:48:11.747Z,102797.43
2023-01-22T21:50:42.421Z,102801.11
2023-01-22T21:53:12.487Z,102796.80
2023-01-22T21:55:50.467Z,102801.48
2023-01-22T21:58:19.000Z,102804.30
2023-01-22T22:00:47.862Z,102807.37
2023-01-22T22:03:16.629Z,102806.62
2023-01-22T22:05:55.766Z,102810.40
2023-01-22T22:08:24.101Z,102809.57
2023-01-22T22:10:53.488Z,102809.11
2023-01-22T22:13:23.287Z,102814.27
2023-01-22T22:15:51.622Z,102812.27
2023-01-22T22:18:19.971Z,102819.61
2023-01-22T22:20:48.260Z,102822.41
2023-01-22T22:23:16.571Z,102824.95
2023-01-22T22:25:49.313Z,102827.33
2023-01-22T22:28:17.901Z,102830.14
2023-01-22T22:30:46.303Z,102828.39
2023-01-22T22:33:14.905Z,102832.20
2023-01-22T22:35:48.055Z,102832.54
2023-01-22T22:38:19.777Z,102826.08
2023-01-22T22:40:59.043Z,102825.92
2023-01-22T22:43:27.399Z,102828.27
2023-01-22T22:45:59.895Z,102829.69
2023-01-22T22:48:28.419Z,102833.89
2023-01-22T22:50:56.952Z,102833.03
2023-01-22T22:53:30.008Z,102831.67
2023-01-22T22:55:59.758Z,102832.23
2023-01-22T22:58:28.144Z,102837.50
2023-01-22T23:00:56.633Z,102838.33
2023-01-22T23:03:26.747Z,102835.00
2023-01-22T23:05:55.882Z,102835.76
2023-01-22T23:08:24.843Z,102833.52
2023-01-22T23:10:53.405Z,102834.20
2023-01-22T23:13:21.906Z,102835.18
2023-01-22T23:15:50.252Z,102839.30
2023-01-22T23:18:20.614Z,102842.44
2023-01-22T23:20:49.270Z,102845.65
2023-01-22T23:23:18.564Z,102848.39
2023-01-22T23:25:47.271Z,102848.77
2023-01-22T23:28:15.895Z,102845.48
2023-01-22T23:30:44.665Z,102849.98
2023-01-22T23:33:13.289Z,102850.83
2023-01-22T23:35:42.214Z,102849.84
2023-01-22T23:38:10.625Z,102858.64
2023-01-22T23:40:38.809Z,102863.13
2023-01-22T23:43:07.316Z,102863.44
2023-01-22T23:45:39.366Z,102865.98
2023-01-22T23:48:07.777Z,102862.67
2023-01-22T23:50:36.265Z,102865.20
2023-01-22T23:53:04.517Z,102870.29
2023-01-22T23:55:33.121Z,102881.91
2023-01-22T23:58:01.545Z,102885.98
